sensor_id;sensor_type;location;lat;lon;timestamp;P1;durP1;ratioP1;P2;durP2;ratioP2
9420;SDS011;4749;51.398;5.466;2023-01-09T00:01:20;1.43;;;0.60;;
9420;SDS011;4749;51.398;5.466;2023-01-09T00:03:53;0.70;;;0.40;;
9420;SDS011;4749;51.398;5.466;2023-01-09T00:06:20;1.27;;;0.70;;
9420;SDS011;4749;51.398;5.466;2023-01-09T00:08:47;1.10;;;0.50;;
9420;SDS011;4749;51.398;5.466;2023-01-09T00:11:14;2.13;;;0.70;;
9420;SDS011;4749;51.398;5.466;2023-01-09T00:13:41;1.90;;;0.43;;
9420;SDS011;4749;51.398;5.466;2023-01-09T00:16:09;0.70;;;0.50;;
9420;SDS011;4749;51.398;5.466;2023-01-09T00:18:36;0.77;;;0.33;;
9420;SDS011;4749;51.398;5.466;2023-01-09T00:21:04;0.60;;;0.43;;
9420;SDS011;4749;51.398;5.466;2023-01-09T00:23:35;0.80;;;0.50;;
9420;SDS011;4749;51.398;5.466;2023-01-09T00:26:06;1.77;;;0.70;;
9420;SDS011;4749;51.398;5.466;2023-01-09T00:28:39;1.93;;;0.53;;
9420;SDS011;4749;51.398;5.466;2023-01-09T00:31:07;1.53;;;0.60;;
9420;SDS011;4749;51.398;5.466;2023-01-09T00:33:37;1.83;;;0.60;;
9420;SDS011;4749;51.398;5.466;2023-01-09T00:36:15;1.60;;;0.70;;
9420;SDS011;4749;51.398;5.466;2023-01-09T00:38:42;1.67;;;0.70;;
9420;SDS011;4749;51.398;5.466;2023-01-09T00:41:11;1.77;;;0.60;;
9420;SDS011;4749;51.398;5.466;2023-01-09T00:43:46;0.63;;;0.50;;
9420;SDS011;4749;51.398;5.466;2023-01-09T00:46:19;0.90;;;0.60;;
9420;SDS011;4749;51.398;5.466;2023-01-09T00:48:51;1.10;;;0.50;;
9420;SDS011;4749;51.398;5.466;2023-01-09T00:51:18;3.40;;;0.43;;
9420;SDS011;4749;51.398;5.466;2023-01-09T00:53:46;0.83;;;0.50;;
9420;SDS011;4749;51.398;5.466;2023-01-09T00:56:16;1.67;;;0.67;;
9420;SDS011;4749;51.398;5.466;2023-01-09T00:58:45;1.13;;;0.50;;
9420;SDS011;4749;51.398;5.466;2023-01-09T01:01:13;0.97;;;0.60;;
9420;SDS011;4749;51.398;5.466;2023-01-09T01:03:41;0.60;;;0.50;;
9420;SDS011;4749;51.398;5.466;2023-01-09T01:06:08;1.37;;;0.50;;
9420;SDS011;4749;51.398;5.466;2023-01-09T01:08:54;2.07;;;0.60;;
9420;SDS011;4749;51.398;5.466;2023-01-09T01:11:22;2.50;;;0.83;;
9420;SDS011;4749;51.398;5.466;2023-01-09T01:13:49;2.30;;;0.70;;
9420;SDS011;4749;51.398;5.466;2023-01-09T01:16:17;2.73;;;0.70;;
9420;SDS011;4749;51.398;5.466;2023-01-09T01:18:44;1.30;;;0.57;;
9420;SDS011;4749;51.398;5.466;2023-01-09T01:21:12;2.97;;;0.70;;
9420;SDS011;4749;51.398;5.466;2023-01-09T01:23:40;1.13;;;0.63;;
9420;SDS011;4749;51.398;5.466;2023-01-09T01:26:09;1.10;;;0.50;;
9420;SDS011;4749;51.398;5.466;2023-01-09T01:28:42;1.90;;;0.70;;
9420;SDS011;4749;51.398;5.466;2023-01-09T01:31:14;1.33;;;0.60;;
9420;SDS011;4749;51.398;5.466;2023-01-09T01:33:43;2.00;;;0.80;;
9420;SDS011;4749;51.398;5.466;2023-01-09T01:36:11;2.20;;;0.70;;
9420;SDS011;4749;51.398;5.466;2023-01-09T01:38:40;1.20;;;0.70;;
9420;SDS011;4749;51.398;5.466;2023-01-09T01:41:07;2.03;;;0.70;;
9420;SDS011;4749;51.398;5.466;2023-01-09T01:47:17;1.57;;;0.83;;
9420;SDS011;4749;51.398;5.466;2023-01-09T01:49:46;2.53;;;0.80;;
9420;SDS011;4749;51.398;5.466;2023-01-09T01:52:13;2.63;;;0.80;;
9420;SDS011;4749;51.398;5.466;2023-01-09T01:54:42;1.93;;;0.90;;
9420;SDS011;4749;51.398;5.466;2023-01-09T01:57:10;2.73;;;0.90;;
9420;SDS011;4749;51.398;5.466;2023-01-09T01:59:42;1.47;;;0.90;;
9420;SDS011;4749;51.398;5.466;2023-01-09T02:02:19;1.63;;;0.70;;
9420;SDS011;4749;51.398;5.466;2023-01-09T02:04:53;1.57;;;0.90;;
9420;SDS011;4749;51.398;5.466;2023-01-09T02:07:22;5.43;;;1.20;;
9420;SDS011;4749;51.398;5.466;2023-01-09T02:09:50;5.90;;;2.80;;
9420;SDS011;4749;51.398;5.466;2023-01-09T02:12:21;3.83;;;1.67;;
9420;SDS011;4749;51.398;5.466;2023-01-09T02:14:55;3.00;;;1.00;;
9420;SDS011;4749;51.398;5.466;2023-01-09T02:37:42;5.63;;;1.70;;
9420;SDS011;4749;51.398;5.466;2023-01-09T02:41:06;5.87;;;2.40;;
9420;SDS011;4749;51.398;5.466;2023-01-09T02:43:41;5.83;;;2.50;;
9420;SDS011;4749;51.398;5.466;2023-01-09T02:46:16;8.20;;;3.40;;
9420;SDS011;4749;51.398;5.466;2023-01-09T02:48:50;7.40;;;3.47;;
9420;SDS011;4749;51.398;5.466;2023-01-09T02:51:22;7.60;;;3.47;;
9420;SDS011;4749;51.398;5.466;2023-01-09T02:54:53;6.50;;;3.03;;
9420;SDS011;4749;51.398;5.466;2023-01-09T03:06:10;8.27;;;3.07;;
9420;SDS011;4749;51.398;5.466;2023-01-09T03:08:53;6.23;;;2.80;;
9420;SDS011;4749;51.398;5.466;2023-01-09T03:11:27;9.23;;;2.43;;
9420;SDS011;4749;51.398;5.466;2023-01-09T03:14:01;6.73;;;2.70;;
9420;SDS011;4749;51.398;5.466;2023-01-09T03:16:35;5.23;;;2.50;;
9420;SDS011;4749;51.398;5.466;2023-01-09T03:19:04;8.03;;;2.33;;
9420;SDS011;4749;51.398;5.466;2023-01-09T03:21:36;6.80;;;2.27;;
9420;SDS011;4749;51.398;5.466;2023-01-09T03:24:05;3.80;;;2.10;;
9420;SDS011;4749;51.398;5.466;2023-01-09T03:26:33;4.10;;;1.90;;
9420;SDS011;4749;51.398;5.466;2023-01-09T03:29:00;6.07;;;2.10;;
9420;SDS011;4749;51.398;5.466;2023-01-09T03:31:27;4.63;;;1.93;;
9420;SDS011;4749;51.398;5.466;2023-01-09T03:33:55;4.80;;;1.97;;
9420;SDS011;4749;51.398;5.466;2023-01-09T03:36:22;3.33;;;1.47;;
9420;SDS011;4749;51.398;5.466;2023-01-09T03:38:50;3.80;;;1.50;;
9420;SDS011;4749;51.398;5.466;2023-01-09T03:41:18;4.03;;;1.80;;
9420;SDS011;4749;51.398;5.466;2023-01-09T03:43:46;6.30;;;1.70;;
9420;SDS011;4749;51.398;5.466;2023-01-09T03:46:14;3.83;;;1.30;;
9420;SDS011;4749;51.398;5.466;2023-01-09T03:48:42;2.57;;;1.40;;
9420;SDS011;4749;51.398;5.466;2023-01-09T03:51:09;4.67;;;1.47;;
9420;SDS011;4749;51.398;5.466;2023-01-09T03:53:36;3.57;;;1.40;;
9420;SDS011;4749;51.398;5.466;2023-01-09T03:56:04;3.40;;;1.20;;
9420;SDS011;4749;51.398;5.466;2023-01-09T03:58:31;4.43;;;1.40;;
9420;SDS011;4749;51.398;5.466;2023-01-09T04:01:00;3.57;;;1.10;;
9420;SDS011;4749;51.398;5.466;2023-01-09T04:03:29;3.27;;;1.07;;
9420;SDS011;4749;51.398;5.466;2023-01-09T04:05:57;5.80;;;1.20;;
9420;SDS011;4749;51.398;5.466;2023-01-09T04:08:25;2.63;;;1.10;;
9420;SDS011;4749;51.398;5.466;2023-01-09T04:10:52;3.20;;;1.00;;
9420;SDS011;4749;51.398;5.466;2023-01-09T04:13:19;1.77;;;1.00;;
9420;SDS011;4749;51.398;5.466;2023-01-09T04:15:46;5.00;;;1.63;;
9420;SDS011;4749;51.398;5.466;2023-01-09T04:18:13;6.13;;;1.17;;
9420;SDS011;4749;51.398;5.466;2023-01-09T04:20:41;2.77;;;1.20;;
9420;SDS011;4749;51.398;5.466;2023-01-09T04:23:11;5.90;;;1.30;;
9420;SDS011;4749;51.398;5.466;2023-01-09T04:25:39;4.23;;;1.40;;
9420;SDS011;4749;51.398;5.466;2023-01-09T04:28:06;3.93;;;1.00;;
9420;SDS011;4749;51.398;5.466;2023-01-09T04:30:33;4.80;;;1.43;;
9420;SDS011;4749;51.398;5.466;2023-01-09T04:33:00;4.43;;;1.20;;
9420;SDS011;4749;51.398;5.466;2023-01-09T04:35:27;6.40;;;1.17;;
9420;SDS011;4749;51.398;5.466;2023-01-09T04:37:55;5.57;;;1.67;;
9420;SDS011;4749;51.398;5.466;2023-01-09T04:40:23;6.00;;;1.50;;
9420;SDS011;4749;51.398;5.466;2023-01-09T04:42:50;5.57;;;1.40;;
9420;SDS011;4749;51.398;5.466;2023-01-09T04:45:17;5.13;;;1.10;;
9420;SDS011;4749;51.398;5.466;2023-01-09T04:47:44;4.53;;;1.20;;
9420;SDS011;4749;51.398;5.466;2023-01-09T04:50:11;3.33;;;1.40;;
9420;SDS011;4749;51.398;5.466;2023-01-09T04:52:39;3.70;;;1.40;;
9420;SDS011;4749;51.398;5.466;2023-01-09T04:55:06;4.67;;;1.30;;
9420;SDS011;4749;51.398;5.466;2023-01-09T04:57:34;6.77;;;1.17;;
9420;SDS011;4749;51.398;5.466;2023-01-09T05:00:02;6.97;;;1.43;;
9420;SDS011;4749;51.398;5.466;2023-01-09T05:02:35;2.93;;;1.20;;
9420;SDS011;4749;51.398;5.466;2023-01-09T05:05:03;4.17;;;1.00;;
9420;SDS011;4749;51.398;5.466;2023-01-09T05:07:31;4.63;;;1.27;;
9420;SDS011;4749;51.398;5.466;2023-01-09T05:09:59;2.57;;;0.90;;
9420;SDS011;4749;51.398;5.466;2023-01-09T05:12:27;4.00;;;1.30;;
9420;SDS011;4749;51.398;5.466;2023-01-09T05:14:54;6.40;;;1.20;;
9420;SDS011;4749;51.398;5.466;2023-01-09T05:17:23;4.63;;;1.27;;
9420;SDS011;4749;51.398;5.466;2023-01-09T05:19:50;4.23;;;1.30;;
9420;SDS011;4749;51.398;5.466;2023-01-09T05:22:17;6.47;;;1.33;;
9420;SDS011;4749;51.398;5.466;2023-01-09T05:24:44;5.67;;;1.20;;
9420;SDS011;4749;51.398;5.466;2023-01-09T05:27:12;5.90;;;1.10;;
9420;SDS011;4749;51.398;5.466;2023-01-09T05:29:39;7.03;;;1.40;;
9420;SDS011;4749;51.398;5.466;2023-01-09T05:32:06;6.87;;;1.50;;
9420;SDS011;4749;51.398;5.466;2023-01-09T05:34:33;7.40;;;1.37;;
9420;SDS011;4749;51.398;5.466;2023-01-09T05:37:01;6.30;;;1.20;;
9420;SDS011;4749;51.398;5.466;2023-01-09T05:39:28;4.70;;;1.20;;
9420;SDS011;4749;51.398;5.466;2023-01-09T05:41:55;5.77;;;1.47;;
9420;SDS011;4749;51.398;5.466;2023-01-09T05:44:22;4.47;;;0.97;;
9420;SDS011;4749;51.398;5.466;2023-01-09T05:46:49;5.13;;;1.10;;
9420;SDS011;4749;51.398;5.466;2023-01-09T05:49:16;3.37;;;1.20;;
9420;SDS011;4749;51.398;5.466;2023-01-09T05:51:43;3.83;;;1.20;;
9420;SDS011;4749;51.398;5.466;2023-01-09T05:54:10;5.93;;;1.20;;
9420;SDS011;4749;51.398;5.466;2023-01-09T05:56:37;5.93;;;1.60;;
9420;SDS011;4749;51.398;5.466;2023-01-09T05:59:04;8.00;;;2.47;;
9420;SDS011;4749;51.398;5.466;2023-01-09T06:01:31;9.33;;;1.70;;
9420;SDS011;4749;51.398;5.466;2023-01-09T06:03:59;4.10;;;1.10;;
9420;SDS011;4749;51.398;5.466;2023-01-09T06:06:26;8.83;;;1.63;;
9420;SDS011;4749;51.398;5.466;2023-01-09T06:08:53;5.27;;;1.50;;
9420;SDS011;4749;51.398;5.466;2023-01-09T06:11:20;4.30;;;1.10;;
9420;SDS011;4749;51.398;5.466;2023-01-09T06:13:47;7.93;;;1.53;;
9420;SDS011;4749;51.398;5.466;2023-01-09T06:16:15;5.27;;;1.13;;
9420;SDS011;4749;51.398;5.466;2023-01-09T06:18:42;4.67;;;1.30;;
9420;SDS011;4749;51.398;5.466;2023-01-09T06:21:09;5.67;;;1.73;;
9420;SDS011;4749;51.398;5.466;2023-01-09T06:23:36;4.70;;;1.27;;
9420;SDS011;4749;51.398;5.466;2023-01-09T06:26:04;6.33;;;1.53;;
9420;SDS011;4749;51.398;5.466;2023-01-09T06:28:31;5.30;;;1.20;;
9420;SDS011;4749;51.398;5.466;2023-01-09T06:30:58;6.67;;;1.10;;
9420;SDS011;4749;51.398;5.466;2023-01-09T06:33:25;5.97;;;1.57;;
9420;SDS011;4749;51.398;5.466;2023-01-09T06:35:52;6.77;;;1.30;;
9420;SDS011;4749;51.398;5.466;2023-01-09T06:38:19;5.03;;;1.53;;
9420;SDS011;4749;51.398;5.466;2023-01-09T06:40:46;5.30;;;1.53;;
9420;SDS011;4749;51.398;5.466;2023-01-09T06:43:15;13.37;;;2.70;;
9420;SDS011;4749;51.398;5.466;2023-01-09T06:45:42;5.20;;;1.50;;
9420;SDS011;4749;51.398;5.466;2023-01-09T06:48:10;4.83;;;1.27;;
9420;SDS011;4749;51.398;5.466;2023-01-09T06:50:37;5.63;;;1.80;;
9420;SDS011;4749;51.398;5.466;2023-01-09T06:53:05;6.53;;;1.97;;
9420;SDS011;4749;51.398;5.466;2023-01-09T06:55:33;8.23;;;1.77;;
9420;SDS011;4749;51.398;5.466;2023-01-09T06:58:00;7.80;;;1.87;;
9420;SDS011;4749;51.398;5.466;2023-01-09T07:00:27;5.93;;;1.57;;
9420;SDS011;4749;51.398;5.466;2023-01-09T07:02:55;8.87;;;1.80;;
9420;SDS011;4749;51.398;5.466;2023-01-09T07:05:22;5.33;;;1.77;;
9420;SDS011;4749;51.398;5.466;2023-01-09T07:07:49;6.10;;;2.03;;
9420;SDS011;4749;51.398;5.466;2023-01-09T07:10:16;12.20;;;1.83;;
9420;SDS011;4749;51.398;5.466;2023-01-09T07:12:44;5.83;;;1.40;;
9420;SDS011;4749;51.398;5.466;2023-01-09T07:15:11;6.63;;;1.77;;
9420;SDS011;4749;51.398;5.466;2023-01-09T07:17:38;8.20;;;1.70;;
9420;SDS011;4749;51.398;5.466;2023-01-09T07:20:06;8.90;;;2.20;;
9420;SDS011;4749;51.398;5.466;2023-01-09T07:22:34;6.10;;;1.33;;
9420;SDS011;4749;51.398;5.466;2023-01-09T07:25:01;6.70;;;1.77;;
9420;SDS011;4749;51.398;5.466;2023-01-09T07:27:28;11.33;;;1.80;;
9420;SDS011;4749;51.398;5.466;2023-01-09T07:29:55;6.07;;;1.40;;
9420;SDS011;4749;51.398;5.466;2023-01-09T07:32:23;7.10;;;1.77;;
9420;SDS011;4749;51.398;5.466;2023-01-09T07:34:50;5.10;;;1.63;;
9420;SDS011;4749;51.398;5.466;2023-01-09T07:37:18;4.47;;;1.40;;
9420;SDS011;4749;51.398;5.466;2023-01-09T07:39:45;7.70;;;1.50;;
9420;SDS011;4749;51.398;5.466;2023-01-09T07:42:12;4.40;;;1.37;;
9420;SDS011;4749;51.398;5.466;2023-01-09T07:44:40;3.63;;;1.20;;
9420;SDS011;4749;51.398;5.466;2023-01-09T07:47:07;6.70;;;1.43;;
9420;SDS011;4749;51.398;5.466;2023-01-09T07:49:34;4.43;;;1.10;;
9420;SDS011;4749;51.398;5.466;2023-01-09T07:52:02;3.50;;;1.10;;
9420;SDS011;4749;51.398;5.466;2023-01-09T07:54:30;7.03;;;1.60;;
9420;SDS011;4749;51.398;5.466;2023-01-09T07:56:57;7.60;;;1.90;;
9420;SDS011;4749;51.398;5.466;2023-01-09T08:02:50;5.50;;;1.00;;
9420;SDS011;4749;51.398;5.466;2023-01-09T08:05:36;4.13;;;1.20;;
9420;SDS011;4749;51.398;5.466;2023-01-09T08:08:11;4.47;;;1.20;;
9420;SDS011;4749;51.398;5.466;2023-01-09T08:10:47;7.60;;;1.73;;
9420;SDS011;4749;51.398;5.466;2023-01-09T08:13:23;4.70;;;1.30;;
9420;SDS011;4749;51.398;5.466;2023-01-09T08:16:19;3.83;;;1.40;;
9420;SDS011;4749;51.398;5.466;2023-01-09T08:19:05;5.80;;;1.33;;
9420;SDS011;4749;51.398;5.466;2023-01-09T08:21:32;7.63;;;1.60;;
9420;SDS011;4749;51.398;5.466;2023-01-09T08:23:59;5.00;;;1.20;;
9420;SDS011;4749;51.398;5.466;2023-01-09T08:26:37;3.90;;;1.43;;
9420;SDS011;4749;51.398;5.466;2023-01-09T08:29:16;4.80;;;1.00;;
9420;SDS011;4749;51.398;5.466;2023-01-09T08:32:19;3.80;;;1.17;;
9420;SDS011;4749;51.398;5.466;2023-01-09T08:34:47;4.60;;;1.30;;
9420;SDS011;4749;51.398;5.466;2023-01-09T08:37:14;2.90;;;1.07;;
9420;SDS011;4749;51.398;5.466;2023-01-09T08:39:41;3.97;;;1.20;;
9420;SDS011;4749;51.398;5.466;2023-01-09T08:42:08;4.93;;;1.27;;
9420;SDS011;4749;51.398;5.466;2023-01-09T08:44:54;4.27;;;1.10;;
9420;SDS011;4749;51.398;5.466;2023-01-09T08:47:40;3.67;;;1.30;;
9420;SDS011;4749;51.398;5.466;2023-01-09T08:50:07;5.30;;;0.97;;
9420;SDS011;4749;51.398;5.466;2023-01-09T08:52:35;4.07;;;1.00;;
9420;SDS011;4749;51.398;5.466;2023-01-09T08:55:03;3.67;;;1.07;;
9420;SDS011;4749;51.398;5.466;2023-01-09T08:57:31;4.33;;;1.50;;
9420;SDS011;4749;51.398;5.466;2023-01-09T08:59:58;6.50;;;1.30;;
9420;SDS011;4749;51.398;5.466;2023-01-09T09:02:25;4.50;;;1.10;;
9420;SDS011;4749;51.398;5.466;2023-01-09T09:04:52;3.90;;;1.10;;
9420;SDS011;4749;51.398;5.466;2023-01-09T09:07:21;2.90;;;0.90;;
9420;SDS011;4749;51.398;5.466;2023-01-09T09:09:52;4.30;;;1.10;;
9420;SDS011;4749;51.398;5.466;2023-01-09T09:12:20;3.23;;;0.80;;
9420;SDS011;4749;51.398;5.466;2023-01-09T09:14:50;3.83;;;1.20;;
9420;SDS011;4749;51.398;5.466;2023-01-09T09:17:35;7.27;;;1.30;;
9420;SDS011;4749;51.398;5.466;2023-01-09T09:20:03;4.80;;;1.20;;
9420;SDS011;4749;51.398;5.466;2023-01-09T09:22:35;4.67;;;1.10;;
9420;SDS011;4749;51.398;5.466;2023-01-09T09:25:03;6.83;;;1.47;;
9420;SDS011;4749;51.398;5.466;2023-01-09T09:27:31;6.73;;;1.50;;
9420;SDS011;4749;51.398;5.466;2023-01-09T09:29:59;3.10;;;1.00;;
9420;SDS011;4749;51.398;5.466;2023-01-09T09:32:26;5.63;;;1.57;;
9420;SDS011;4749;51.398;5.466;2023-01-09T09:34:56;6.10;;;1.43;;
9420;SDS011;4749;51.398;5.466;2023-01-09T09:37:23;4.67;;;1.40;;
9420;SDS011;4749;51.398;5.466;2023-01-09T09:39:56;4.47;;;1.60;;
9420;SDS011;4749;51.398;5.466;2023-01-09T09:54:03;5.43;;;1.47;;
9420;SDS011;4749;51.398;5.466;2023-01-09T09:56:59;4.37;;;1.30;;
9420;SDS011;4749;51.398;5.466;2023-01-09T09:59:31;6.13;;;1.60;;
9420;SDS011;4749;51.398;5.466;2023-01-09T10:04:36;5.90;;;1.47;;
9420;SDS011;4749;51.398;5.466;2023-01-09T10:07:19;4.47;;;1.50;;
9420;SDS011;4749;51.398;5.466;2023-01-09T10:09:59;4.43;;;1.43;;
9420;SDS011;4749;51.398;5.466;2023-01-09T10:12:38;6.10;;;1.47;;
9420;SDS011;4749;51.398;5.466;2023-01-09T10:15:56;4.60;;;1.50;;
9420;SDS011;4749;51.398;5.466;2023-01-09T10:21:39;7.13;;;1.60;;
9420;SDS011;4749;51.398;5.466;2023-01-09T10:24:56;4.00;;;1.37;;
9420;SDS011;4749;51.398;5.466;2023-01-09T10:34:05;5.70;;;1.47;;
9420;SDS011;4749;51.398;5.466;2023-01-09T10:37:22;5.33;;;1.50;;
9420;SDS011;4749;51.398;5.466;2023-01-09T10:40:12;4.17;;;1.30;;
9420;SDS011;4749;51.398;5.466;2023-01-09T10:42:46;3.43;;;1.33;;
9420;SDS011;4749;51.398;5.466;2023-01-09T10:48:26;6.70;;;2.00;;
9420;SDS011;4749;51.398;5.466;2023-01-09T10:51:01;4.83;;;1.77;;
9420;SDS011;4749;51.398;5.466;2023-01-09T10:53:38;4.90;;;1.60;;
9420;SDS011;4749;51.398;5.466;2023-01-09T10:56:15;6.67;;;2.33;;
9420;SDS011;4749;51.398;5.466;2023-01-09T10:58:57;4.97;;;1.67;;
9420;SDS011;4749;51.398;5.466;2023-01-09T11:01:26;3.63;;;1.70;;
9420;SDS011;4749;51.398;5.466;2023-01-09T11:03:57;4.43;;;1.80;;
9420;SDS011;4749;51.398;5.466;2023-01-09T11:06:39;5.83;;;1.70;;
9420;SDS011;4749;51.398;5.466;2023-01-09T11:09:16;5.57;;;1.60;;
9420;SDS011;4749;51.398;5.466;2023-01-09T11:11:44;3.50;;;1.60;;
9420;SDS011;4749;51.398;5.466;2023-01-09T11:14:13;4.70;;;1.40;;
9420;SDS011;4749;51.398;5.466;2023-01-09T11:16:53;5.87;;;1.93;;
9420;SDS011;4749;51.398;5.466;2023-01-09T11:19:23;4.83;;;1.80;;
9420;SDS011;4749;51.398;5.466;2023-01-09T11:22:35;4.47;;;1.83;;
9420;SDS011;4749;51.398;5.466;2023-01-09T11:24:43;6.07;;;1.60;;
9420;SDS011;4749;51.398;5.466;2023-01-09T11:30:23;4.37;;;1.47;;
9420;SDS011;4749;51.398;5.466;2023-01-09T11:32:52;9.37;;;2.17;;
9420;SDS011;4749;51.398;5.466;2023-01-09T11:35:30;7.83;;;2.17;;
9420;SDS011;4749;51.398;5.466;2023-01-09T11:40:44;5.37;;;2.20;;
9420;SDS011;4749;51.398;5.466;2023-01-09T11:43:43;4.20;;;1.63;;
9420;SDS011;4749;51.398;5.466;2023-01-09T11:46:28;6.10;;;1.73;;
9420;SDS011;4749;51.398;5.466;2023-01-09T11:51:43;3.20;;;1.30;;
9420;SDS011;4749;51.398;5.466;2023-01-09T11:56:55;4.43;;;1.80;;
9420;SDS011;4749;51.398;5.466;2023-01-09T11:59:27;4.70;;;1.70;;
9420;SDS011;4749;51.398;5.466;2023-01-09T12:11:19;6.40;;;2.30;;
9420;SDS011;4749;51.398;5.466;2023-01-09T12:22:59;5.40;;;1.67;;
9420;SDS011;4749;51.398;5.466;2023-01-09T12:25:52;5.07;;;1.87;;
9420;SDS011;4749;51.398;5.466;2023-01-09T12:34:52;4.23;;;2.53;;
9420;SDS011;4749;51.398;5.466;2023-01-09T12:38:08;3.93;;;2.00;;
9420;SDS011;4749;51.398;5.466;2023-01-09T12:46:46;8.03;;;3.47;;
9420;SDS011;4749;51.398;5.466;2023-01-09T12:52:07;9.57;;;3.70;;
9420;SDS011;4749;51.398;5.466;2023-01-09T12:54:51;5.77;;;2.00;;
9420;SDS011;4749;51.398;5.466;2023-01-09T12:57:34;7.10;;;2.60;;
9420;SDS011;4749;51.398;5.466;2023-01-09T13:00:10;8.30;;;2.40;;
9420;SDS011;4749;51.398;5.466;2023-01-09T13:02:54;4.40;;;2.50;;
9420;SDS011;4749;51.398;5.466;2023-01-09T13:05:39;5.47;;;2.30;;
9420;SDS011;4749;51.398;5.466;2023-01-09T13:10:52;5.43;;;2.43;;
9420;SDS011;4749;51.398;5.466;2023-01-09T13:13:42;6.53;;;2.40;;
9420;SDS011;4749;51.398;5.466;2023-01-09T13:16:20;5.77;;;2.47;;
9420;SDS011;4749;51.398;5.466;2023-01-09T13:19:02;5.77;;;2.80;;
9420;SDS011;4749;51.398;5.466;2023-01-09T13:21:39;5.73;;;2.27;;
9420;SDS011;4749;51.398;5.466;2023-01-09T13:24:17;4.47;;;2.43;;
9420;SDS011;4749;51.398;5.466;2023-01-09T13:27:10;7.47;;;2.57;;
9420;SDS011;4749;51.398;5.466;2023-01-09T13:29:47;7.77;;;2.33;;
9420;SDS011;4749;51.398;5.466;2023-01-09T13:32:31;6.47;;;3.47;;
9420;SDS011;4749;51.398;5.466;2023-01-09T13:35:10;4.60;;;2.47;;
9420;SDS011;4749;51.398;5.466;2023-01-09T13:37:39;8.20;;;2.87;;
9420;SDS011;4749;51.398;5.466;2023-01-09T13:43:03;6.63;;;2.63;;
9420;SDS011;4749;51.398;5.466;2023-01-09T13:45:36;5.17;;;2.77;;
9420;SDS011;4749;51.398;5.466;2023-01-09T13:50:40;7.93;;;3.30;;
9420;SDS011;4749;51.398;5.466;2023-01-09T13:58:29;10.10;;;3.10;;
9420;SDS011;4749;51.398;5.466;2023-01-09T14:06:35;5.07;;;2.63;;
9420;SDS011;4749;51.398;5.466;2023-01-09T14:09:10;7.27;;;3.10;;
9420;SDS011;4749;51.398;5.466;2023-01-09T14:11:47;6.53;;;2.87;;
9420;SDS011;4749;51.398;5.466;2023-01-09T14:14:31;5.13;;;2.73;;
9420;SDS011;4749;51.398;5.466;2023-01-09T14:17:00;10.63;;;2.97;;
9420;SDS011;4749;51.398;5.466;2023-01-09T14:19:40;6.27;;;2.40;;
9420;SDS011;4749;51.398;5.466;2023-01-09T14:22:21;9.57;;;2.73;;
9420;SDS011;4749;51.398;5.466;2023-01-09T14:25:16;8.70;;;3.40;;
9420;SDS011;4749;51.398;5.466;2023-01-09T14:28:01;9.33;;;2.90;;
9420;SDS011;4749;51.398;5.466;2023-01-09T14:30:34;8.67;;;3.60;;
9420;SDS011;4749;51.398;5.466;2023-01-09T14:33:26;5.57;;;2.83;;
9420;SDS011;4749;51.398;5.466;2023-01-09T14:36:15;8.17;;;2.50;;
9420;SDS011;4749;51.398;5.466;2023-01-09T14:38:53;9.10;;;2.77;;
9420;SDS011;4749;51.398;5.466;2023-01-09T14:41:31;5.53;;;2.70;;
9420;SDS011;4749;51.398;5.466;2023-01-09T14:47:22;6.20;;;3.07;;
9420;SDS011;4749;51.398;5.466;2023-01-09T14:49:58;7.13;;;3.37;;
9420;SDS011;4749;51.398;5.466;2023-01-09T14:52:34;7.63;;;3.43;;
9420;SDS011;4749;51.398;5.466;2023-01-09T14:58:22;5.80;;;3.07;;
9420;SDS011;4749;51.398;5.466;2023-01-09T15:01:02;9.70;;;3.20;;
9420;SDS011;4749;51.398;5.466;2023-01-09T15:03:32;7.10;;;3.67;;
9420;SDS011;4749;51.398;5.466;2023-01-09T15:06:09;6.30;;;3.20;;
9420;SDS011;4749;51.398;5.466;2023-01-09T15:08:44;8.67;;;3.57;;
9420;SDS011;4749;51.398;5.466;2023-01-09T15:11:15;6.10;;;3.70;;
9420;SDS011;4749;51.398;5.466;2023-01-09T15:13:45;8.63;;;3.30;;
9420;SDS011;4749;51.398;5.466;2023-01-09T15:16:18;5.13;;;3.17;;
9420;SDS011;4749;51.398;5.466;2023-01-09T15:18:53;9.67;;;4.17;;
9420;SDS011;4749;51.398;5.466;2023-01-09T15:21:27;7.90;;;4.20;;
9420;SDS011;4749;51.398;5.466;2023-01-09T15:26:55;9.90;;;4.27;;
9420;SDS011;4749;51.398;5.466;2023-01-09T15:29:26;12.13;;;4.47;;
9420;SDS011;4749;51.398;5.466;2023-01-09T15:31:57;10.13;;;4.40;;
9420;SDS011;4749;51.398;5.466;2023-01-09T15:34:32;10.60;;;4.80;;
9420;SDS011;4749;51.398;5.466;2023-01-09T15:37:00;13.20;;;4.50;;
9420;SDS011;4749;51.398;5.466;2023-01-09T15:39:34;11.00;;;4.43;;
9420;SDS011;4749;51.398;5.466;2023-01-09T15:42:03;11.63;;;4.43;;
9420;SDS011;4749;51.398;5.466;2023-01-09T15:45:04;9.07;;;4.20;;
9420;SDS011;4749;51.398;5.466;2023-01-09T15:47:45;7.13;;;4.53;;
9420;SDS011;4749;51.398;5.466;2023-01-09T15:50:14;10.20;;;4.43;;
9420;SDS011;4749;51.398;5.466;2023-01-09T15:52:43;11.23;;;4.80;;
9420;SDS011;4749;51.398;5.466;2023-01-09T15:55:33;8.97;;;4.90;;
9420;SDS011;4749;51.398;5.466;2023-01-09T15:58:01;8.93;;;4.70;;
9420;SDS011;4749;51.398;5.466;2023-01-09T16:03:09;11.33;;;5.60;;
9420;SDS011;4749;51.398;5.466;2023-01-09T16:05:47;8.87;;;4.73;;
9420;SDS011;4749;51.398;5.466;2023-01-09T16:08:31;8.00;;;4.90;;
9420;SDS011;4749;51.398;5.466;2023-01-09T16:11:06;10.27;;;5.23;;
9420;SDS011;4749;51.398;5.466;2023-01-09T16:13:45;11.20;;;5.97;;
9420;SDS011;4749;51.398;5.466;2023-01-09T16:16:13;10.27;;;5.53;;
9420;SDS011;4749;51.398;5.466;2023-01-09T16:18:59;10.07;;;5.20;;
9420;SDS011;4749;51.398;5.466;2023-01-09T16:21:31;13.10;;;5.67;;
9420;SDS011;4749;51.398;5.466;2023-01-09T16:24:20;14.47;;;6.37;;
9420;SDS011;4749;51.398;5.466;2023-01-09T16:27:12;17.13;;;5.50;;
9420;SDS011;4749;51.398;5.466;2023-01-09T16:29:46;9.67;;;5.47;;
9420;SDS011;4749;51.398;5.466;2023-01-09T16:32:25;12.53;;;5.77;;
9420;SDS011;4749;51.398;5.466;2023-01-09T16:35:02;12.63;;;4.97;;
9420;SDS011;4749;51.398;5.466;2023-01-09T16:37:38;10.47;;;4.70;;
9420;SDS011;4749;51.398;5.466;2023-01-09T16:40:21;13.53;;;4.40;;
9420;SDS011;4749;51.398;5.466;2023-01-09T16:42:55;12.30;;;3.97;;
9420;SDS011;4749;51.398;5.466;2023-01-09T16:45:37;8.93;;;3.33;;
9420;SDS011;4749;51.398;5.466;2023-01-09T16:50:41;9.00;;;3.50;;
9420;SDS011;4749;51.398;5.466;2023-01-09T16:53:16;9.53;;;3.03;;
9420;SDS011;4749;51.398;5.466;2023-01-09T16:55:49;8.97;;;2.83;;
9420;SDS011;4749;51.398;5.466;2023-01-09T16:58:27;9.83;;;3.60;;
9420;SDS011;4749;51.398;5.466;2023-01-09T17:00:56;9.43;;;3.13;;
9420;SDS011;4749;51.398;5.466;2023-01-09T17:03:24;9.80;;;3.40;;
9420;SDS011;4749;51.398;5.466;2023-01-09T17:05:53;8.97;;;2.27;;
9420;SDS011;4749;51.398;5.466;2023-01-09T17:08:22;7.43;;;2.90;;
9420;SDS011;4749;51.398;5.466;2023-01-09T17:10:53;12.57;;;3.73;;
9420;SDS011;4749;51.398;5.466;2023-01-09T17:13:22;9.90;;;3.67;;
9420;SDS011;4749;51.398;5.466;2023-01-09T17:15:56;8.40;;;3.70;;
9420;SDS011;4749;51.398;5.466;2023-01-09T17:18:24;8.30;;;3.90;;
9420;SDS011;4749;51.398;5.466;2023-01-09T17:20:53;15.40;;;5.63;;
9420;SDS011;4749;51.398;5.466;2023-01-09T17:23:22;12.03;;;4.27;;
9420;SDS011;4749;51.398;5.466;2023-01-09T17:25:55;9.47;;;3.70;;
9420;SDS011;4749;51.398;5.466;2023-01-09T17:28:47;10.90;;;3.80;;
9420;SDS011;4749;51.398;5.466;2023-01-09T17:31:16;8.17;;;3.30;;
9420;SDS011;4749;51.398;5.466;2023-01-09T17:33:44;9.73;;;3.87;;
9420;SDS011;4749;51.398;5.466;2023-01-09T17:36:17;6.10;;;3.07;;
9420;SDS011;4749;51.398;5.466;2023-01-09T17:38:52;6.63;;;3.50;;
9420;SDS011;4749;51.398;5.466;2023-01-09T17:41:25;11.50;;;3.30;;
9420;SDS011;4749;51.398;5.466;2023-01-09T17:43:57;7.17;;;3.00;;
9420;SDS011;4749;51.398;5.466;2023-01-09T17:46:29;9.07;;;3.10;;
9420;SDS011;4749;51.398;5.466;2023-01-09T17:48:59;6.63;;;3.10;;
9420;SDS011;4749;51.398;5.466;2023-01-09T17:51:33;8.50;;;3.30;;
9420;SDS011;4749;51.398;5.466;2023-01-09T17:54:00;8.23;;;3.10;;
9420;SDS011;4749;51.398;5.466;2023-01-09T17:56:28;6.17;;;3.17;;
9420;SDS011;4749;51.398;5.466;2023-01-09T17:58:59;11.00;;;3.83;;
9420;SDS011;4749;51.398;5.466;2023-01-09T18:01:26;30.43;;;11.07;;
9420;SDS011;4749;51.398;5.466;2023-01-09T18:03:54;12.50;;;4.13;;
9420;SDS011;4749;51.398;5.466;2023-01-09T18:06:21;8.80;;;3.30;;
9420;SDS011;4749;51.398;5.466;2023-01-09T18:08:49;13.77;;;3.97;;
9420;SDS011;4749;51.398;5.466;2023-01-09T18:11:17;10.33;;;3.30;;